sensor_id;sensor_type;location;lat;lon;timestamp;temperature;humidity
41644;DHT22;44236;48.098;11.582;2023-05-07T00:02:21;23.90;59.10
41644;DHT22;44236;48.098;11.582;2023-05-07T00:04:48;23.90;60.20
41644;DHT22;44236;48.098;11.582;2023-05-07T00:07:14;23.90;60.60
41644;DHT22;44236;48.098;11.582;2023-05-07T00:09:40;23.80;60.50
41644;DHT22;44236;48.098;11.582;2023-05-07T00:12:07;23.80;60.50
41644;DHT22;44236;48.098;11.582;2023-05-07T00:14:32;23.70;60.70
41644;DHT22;44236;48.098;11.582;2023-05-07T00:16:58;23.70;61.00
41644;DHT22;44236;48.098;11.582;2023-05-07T00:19:24;23.70;60.70
41644;DHT22;44236;48.098;11.582;2023-05-07T00:21:49;23.60;60.70
41644;DHT22;44236;48.098;11.582;2023-05-07T00:24:15;23.60;60.70
41644;DHT22;44236;48.098;11.582;2023-05-07T00:26:41;23.60;61.50
41644;DHT22;44236;48.098;11.582;2023-05-07T00:29:07;23.60;61.60
41644;DHT22;44236;48.098;11.582;2023-05-07T00:31:32;23.50;61.30
41644;DHT22;44236;48.098;11.582;2023-05-07T00:33:58;23.50;62.10
41644;DHT22;44236;48.098;11.582;2023-05-07T00:36:23;23.50;62.20
41644;DHT22;44236;48.098;11.582;2023-05-07T00:38:49;23.50;62.10
41644;DHT22;44236;48.098;11.582;2023-05-07T00:41:15;23.40;62.50
41644;DHT22;44236;48.098;11.582;2023-05-07T00:43:40;23.40;62.70
41644;DHT22;44236;48.098;11.582;2023-05-07T00:46:06;23.40;62.20
41644;DHT22;44236;48.098;11.582;2023-05-07T00:48:32;23.30;61.80
41644;DHT22;44236;48.098;11.582;2023-05-07T00:50:58;23.30;62.40
41644;DHT22;44236;48.098;11.582;2023-05-07T00:53:23;23.30;62.60
41644;DHT22;44236;48.098;11.582;2023-05-07T00:55:49;23.20;62.20
41644;DHT22;44236;48.098;11.582;2023-05-07T00:58:16;23.20;62.60
41644;DHT22;44236;48.098;11.582;2023-05-07T01:00:41;23.10;63.00
41644;DHT22;44236;48.098;11.582;2023-05-07T01:03:07;23.10;62.80
41644;DHT22;44236;48.098;11.582;2023-05-07T01:05:33;23.10;62.30
41644;DHT22;44236;48.098;11.582;2023-05-07T01:07:59;23.00;62.30
41644;DHT22;44236;48.098;11.582;2023-05-07T01:10:25;23.00;62.70
41644;DHT22;44236;48.098;11.582;2023-05-07T01:12:52;23.00;62.40
41644;DHT22;44236;48.098;11.582;2023-05-07T01:15:19;23.00;62.80
41644;DHT22;44236;48.098;11.582;2023-05-07T01:17:44;22.90;63.00
41644;DHT22;44236;48.098;11.582;2023-05-07T01:20:11;22.90;62.80
41644;DHT22;44236;48.098;11.582;2023-05-07T01:22:38;22.90;63.20
41644;DHT22;44236;48.098;11.582;2023-05-07T01:25:04;22.90;62.90
41644;DHT22;44236;48.098;11.582;2023-05-07T01:27:30;22.90;63.50
41644;DHT22;44236;48.098;11.582;2023-05-07T01:29:56;22.80;63.60
41644;DHT22;44236;48.098;11.582;2023-05-07T01:35:12;22.80;64.20
41644;DHT22;44236;48.098;11.582;2023-05-07T01:37:40;22.80;63.90
41644;DHT22;44236;48.098;11.582;2023-05-07T01:40:06;22.80;63.70
41644;DHT22;44236;48.098;11.582;2023-05-07T01:42:33;22.70;64.00
41644;DHT22;44236;48.098;11.582;2023-05-07T01:44:59;22.70;64.20
41644;DHT22;44236;48.098;11.582;2023-05-07T01:47:25;22.60;63.80
41644;DHT22;44236;48.098;11.582;2023-05-07T01:49:52;22.60;64.40
41644;DHT22;44236;48.098;11.582;2023-05-07T01:52:18;22.60;64.50
41644;DHT22;44236;48.098;11.582;2023-05-07T01:54:43;22.60;64.10
41644;DHT22;44236;48.098;11.582;2023-05-07T01:57:09;22.60;64.30
41644;DHT22;44236;48.098;11.582;2023-05-07T01:59:34;22.60;63.70
41644;DHT22;44236;48.098;11.582;2023-05-07T02:02:00;22.50;64.50
41644;DHT22;44236;48.098;11.582;2023-05-07T02:04:26;22.50;64.40
41644;DHT22;44236;48.098;11.582;2023-05-07T02:06:51;22.50;64.50
41644;DHT22;44236;48.098;11.582;2023-05-07T02:09:18;22.50;64.20
41644;DHT22;44236;48.098;11.582;2023-05-07T02:11:44;22.50;63.90
41644;DHT22;44236;48.098;11.582;2023-05-07T02:14:09;22.50;64.70
41644;DHT22;44236;48.098;11.582;2023-05-07T02:16:35;22.40;64.30
41644;DHT22;44236;48.098;11.582;2023-05-07T02:19:01;22.40;64.30
41644;DHT22;44236;48.098;11.582;2023-05-07T02:21:26;22.40;64.60
41644;DHT22;44236;48.098;11.582;2023-05-07T02:23:52;22.40;63.90
41644;DHT22;44236;48.098;11.582;2023-05-07T02:26:18;22.40;65.00
41644;DHT22;44236;48.098;11.582;2023-05-07T02:28:43;22.40;65.70
41644;DHT22;44236;48.098;11.582;2023-05-07T02:31:09;22.40;64.60
41644;DHT22;44236;48.098;11.582;2023-05-07T02:33:35;22.30;64.40
41644;DHT22;44236;48.098;11.582;2023-05-07T02:36:09;22.30;64.90
41644;DHT22;44236;48.098;11.582;2023-05-07T02:38:35;22.30;65.00
41644;DHT22;44236;48.098;11.582;2023-05-07T02:41:00;22.30;65.60
41644;DHT22;44236;48.098;11.582;2023-05-07T02:43:26;22.30;64.80
41644;DHT22;44236;48.098;11.582;2023-05-07T02:46:02;22.30;65.00
41644;DHT22;44236;48.098;11.582;2023-05-07T02:48:28;22.20;65.00
41644;DHT22;44236;48.098;11.582;2023-05-07T02:50:54;22.20;64.50
41644;DHT22;44236;48.098;11.582;2023-05-07T02:53:20;22.20;65.20
41644;DHT22;44236;48.098;11.582;2023-05-07T02:55:46;22.20;64.80
41644;DHT22;44236;48.098;11.582;2023-05-07T02:58:12;22.20;65.70
41644;DHT22;44236;48.098;11.582;2023-05-07T03:00:37;22.20;64.60
41644;DHT22;44236;48.098;11.582;2023-05-07T03:03:03;22.20;65.10
41644;DHT22;44236;48.098;11.582;2023-05-07T03:05:28;22.20;65.60
41644;DHT22;44236;48.098;11.582;2023-05-07T03:07:54;22.20;65.30
41644;DHT22;44236;48.098;11.582;2023-05-07T03:10:20;22.10;65.80
41644;DHT22;44236;48.098;11.582;2023-05-07T03:12:45;22.10;65.50
41644;DHT22;44236;48.098;11.582;2023-05-07T03:15:11;22.10;66.20
41644;DHT22;44236;48.098;11.582;2023-05-07T03:17:38;22.10;61.90
41644;DHT22;44236;48.098;11.582;2023-05-07T03:20:04;22.00;56.40
41644;DHT22;44236;48.098;11.582;2023-05-07T03:22:30;22.00;62.10
41644;DHT22;44236;48.098;11.582;2023-05-07T03:24:55;22.00;63.50
41644;DHT22;44236;48.098;11.582;2023-05-07T03:27:21;22.00;62.60
41644;DHT22;44236;48.098;11.582;2023-05-07T03:29:46;22.00;63.10
41644;DHT22;44236;48.098;11.582;2023-05-07T03:32:12;22.00;62.90
41644;DHT22;44236;48.098;11.582;2023-05-07T03:34:38;21.90;62.40
41644;DHT22;44236;48.098;11.582;2023-05-07T03:37:03;21.90;62.60
41644;DHT22;44236;48.098;11.582;2023-05-07T03:39:29;21.90;62.60
41644;DHT22;44236;48.098;11.582;2023-05-07T03:41:55;21.90;62.40
41644;DHT22;44236;48.098;11.582;2023-05-07T03:44:20;21.90;62.40
41644;DHT22;44236;48.098;11.582;2023-05-07T03:46:46;21.90;62.00
41644;DHT22;44236;48.098;11.582;2023-05-07T03:49:12;21.90;62.00
41644;DHT22;44236;48.098;11.582;2023-05-07T03:51:37;21.80;62.30
41644;DHT22;44236;48.098;11.582;2023-05-07T03:54:03;21.80;62.30
41644;DHT22;44236;48.098;11.582;2023-05-07T03:56:28;21.80;62.20
41644;DHT22;44236;48.098;11.582;2023-05-07T03:58:54;21.80;61.80
41644;DHT22;44236;48.098;11.582;2023-05-07T04:01:20;21.80;62.00
41644;DHT22;44236;48.098;11.582;2023-05-07T04:03:46;21.80;61.80
41644;DHT22;44236;48.098;11.582;2023-05-07T04:06:11;21.80;62.00
41644;DHT22;44236;48.098;11.582;2023-05-07T04:08:37;21.80;62.10
41644;DHT22;44236;48.098;11.582;2023-05-07T04:11:03;21.70;62.10
41644;DHT22;44236;48.098;11.582;2023-05-07T04:13:29;21.70;61.70
41644;DHT22;44236;48.098;11.582;2023-05-07T04:15:56;21.70;61.60
41644;DHT22;44236;48.098;11.582;2023-05-07T04:18:21;21.70;61.80
41644;DHT22;44236;48.098;11.582;2023-05-07T04:20:50;21.70;62.10
41644;DHT22;44236;48.098;11.582;2023-05-07T04:23:15;21.70;62.00
41644;DHT22;44236;48.098;11.582;2023-05-07T04:25:41;21.70;62.00
41644;DHT22;44236;48.098;11.582;2023-05-07T04:28:07;21.70;62.00
41644;DHT22;44236;48.098;11.582;2023-05-07T04:30:32;21.70;61.90
41644;DHT22;44236;48.098;11.582;2023-05-07T04:32:58;21.60;62.00
41644;DHT22;44236;48.098;11.582;2023-05-07T04:35:23;21.70;61.70
41644;DHT22;44236;48.098;11.582;2023-05-07T04:37:49;21.60;62.50
41644;DHT22;44236;48.098;11.582;2023-05-07T04:40:15;21.60;62.10
41644;DHT22;44236;48.098;11.582;2023-05-07T04:42:41;21.70;61.70
41644;DHT22;44236;48.098;11.582;2023-05-07T04:45:07;21.60;62.40
41644;DHT22;44236;48.098;11.582;2023-05-07T04:47:34;21.60;62.40
41644;DHT22;44236;48.098;11.582;2023-05-07T04:49:59;21.60;62.40
41644;DHT22;44236;48.098;11.582;2023-05-07T04:52:25;21.60;62.50
41644;DHT22;44236;48.098;11.582;2023-05-07T04:54:51;21.60;62.00
41644;DHT22;44236;48.098;11.582;2023-05-07T04:57:16;21.60;61.90
41644;DHT22;44236;48.098;11.582;2023-05-07T04:59:43;21.60;61.70
41644;DHT22;44236;48.098;11.582;2023-05-07T05:02:10;21.60;61.50
41644;DHT22;44236;48.098;11.582;2023-05-07T05:04:36;21.60;61.60
41644;DHT22;44236;48.098;11.582;2023-05-07T05:07:02;21.70;61.20
41644;DHT22;44236;48.098;11.582;2023-05-07T05:09:29;21.70;61.10
41644;DHT22;44236;48.098;11.582;2023-05-07T05:11:55;21.70;60.90
41644;DHT22;44236;48.098;11.582;2023-05-07T05:14:21;21.80;60.80
41644;DHT22;44236;48.098;11.582;2023-05-07T05:16:46;21.80;60.60
41644;DHT22;44236;48.098;11.582;2023-05-07T05:19:12;21.80;60.40
41644;DHT22;44236;48.098;11.582;2023-05-07T05:21:37;21.90;60.40
41644;DHT22;44236;48.098;11.582;2023-05-07T05:24:03;21.90;60.50
41644;DHT22;44236;48.098;11.582;2023-05-07T05:26:29;21.90;60.10
41644;DHT22;44236;48.098;11.582;2023-05-07T05:28:54;22.00;59.90
41644;DHT22;44236;48.098;11.582;2023-05-07T05:31:20;22.00;59.80
41644;DHT22;44236;48.098;11.582;2023-05-07T05:33:46;22.10;60.00
41644;DHT22;44236;48.098;11.582;2023-05-07T05:36:12;22.10;59.00
41644;DHT22;44236;48.098;11.582;2023-05-07T05:38:39;22.20;58.80
41644;DHT22;44236;48.098;11.582;2023-05-07T05:41:05;22.10;58.90
41644;DHT22;44236;48.098;11.582;2023-05-07T05:43:30;22.20;58.70
41644;DHT22;44236;48.098;11.582;2023-05-07T05:45:56;22.20;58.60
41644;DHT22;44236;48.098;11.582;2023-05-07T05:48:22;22.30;58.50
41644;DHT22;44236;48.098;11.582;2023-05-07T05:50:48;22.30;57.90
41644;DHT22;44236;48.098;11.582;2023-05-07T05:53:14;22.30;57.70
41644;DHT22;44236;48.098;11.582;2023-05-07T05:55:39;22.40;57.70
41644;DHT22;44236;48.098;11.582;2023-05-07T05:58:05;22.40;57.80
41644;DHT22;44236;48.098;11.582;2023-05-07T06:00:31;22.50;57.80
41644;DHT22;44236;48.098;11.582;2023-05-07T06:02:57;22.50;57.50
41644;DHT22;44236;48.098;11.582;2023-05-07T06:05:22;22.60;57.30
41644;DHT22;44236;48.098;11.582;2023-05-07T06:07:48;22.60;56.80
41644;DHT22;44236;48.098;11.582;2023-05-07T06:10:14;22.60;56.60
41644;DHT22;44236;48.098;11.582;2023-05-07T06:12:39;22.60;56.60
41644;DHT22;44236;48.098;11.582;2023-05-07T06:15:05;22.60;56.50
41644;DHT22;44236;48.098;11.582;2023-05-07T06:17:31;22.70;56.40
41644;DHT22;44236;48.098;11.582;2023-05-07T06:19:57;22.70;56.20
41644;DHT22;44236;48.098;11.582;2023-05-07T06:22:22;22.70;55.80
41644;DHT22;44236;48.098;11.582;2023-05-07T06:24:48;22.80;55.70
41644;DHT22;44236;48.098;11.582;2023-05-07T06:27:14;22.90;55.30
41644;DHT22;44236;48.098;11.582;2023-05-07T06:29:39;22.90;54.50
41644;DHT22;44236;48.098;11.582;2023-05-07T06:32:13;22.90;54.20
41644;DHT22;44236;48.098;11.582;2023-05-07T06:34:39;23.00;55.50
41644;DHT22;44236;48.098;11.582;2023-05-07T06:37:05;23.00;55.00
41644;DHT22;44236;48.098;11.582;2023-05-07T06:39:31;23.00;54.90
41644;DHT22;44236;48.098;11.582;2023-05-07T06:41:57;23.00;54.90
41644;DHT22;44236;48.098;11.582;2023-05-07T06:44:23;23.00;54.70
41644;DHT22;44236;48.098;11.582;2023-05-07T06:46:48;23.00;54.80
41644;DHT22;44236;48.098;11.582;2023-05-07T06:49:14;23.00;54.70
41644;DHT22;44236;48.098;11.582;2023-05-07T06:51:40;23.00;54.90
41644;DHT22;44236;48.098;11.582;2023-05-07T06:54:06;23.00;55.30
41644;DHT22;44236;48.098;11.582;2023-05-07T06:56:32;23.00;55.10
41644;DHT22;44236;48.098;11.582;2023-05-07T06:58:59;22.90;54.90
41644;DHT22;44236;48.098;11.582;2023-05-07T07:01:25;23.00;55.30
41644;DHT22;44236;48.098;11.582;2023-05-07T07:03:50;22.90;53.20
41644;DHT22;44236;48.098;11.582;2023-05-07T07:06:16;22.80;53.30
41644;DHT22;44236;48.098;11.582;2023-05-07T07:08:42;22.60;52.90
41644;DHT22;44236;48.098;11.582;2023-05-07T07:11:09;22.50;52.60
41644;DHT22;44236;48.098;11.582;2023-05-07T07:13:35;22.40;52.60
41644;DHT22;44236;48.098;11.582;2023-05-07T07:16:01;22.30;52.70
41644;DHT22;44236;48.098;11.582;2023-05-07T07:18:27;22.30;52.70
41644;DHT22;44236;48.098;11.582;2023-05-07T07:20:53;22.30;52.70
41644;DHT22;44236;48.098;11.582;2023-05-07T07:23:18;22.30;52.70
41644;DHT22;44236;48.098;11.582;2023-05-07T07:25:44;22.40;52.40
41644;DHT22;44236;48.098;11.582;2023-05-07T07:28:10;22.30;52.00
41644;DHT22;44236;48.098;11.582;2023-05-07T07:30:36;22.30;52.40
41644;DHT22;44236;48.098;11.582;2023-05-07T07:33:02;22.40;52.50
41644;DHT22;44236;48.098;11.582;2023-05-07T07:35:32;22.30;52.60
41644;DHT22;44236;48.098;11.582;2023-05-07T07:37:58;22.40;52.60
41644;DHT22;44236;48.098;11.582;2023-05-07T07:40:24;22.40;52.50
41644;DHT22;44236;48.098;11.582;2023-05-07T07:42:50;22.40;52.40
41644;DHT22;44236;48.098;11.582;2023-05-07T07:45:16;22.50;52.30
41644;DHT22;44236;48.098;11.582;2023-05-07T07:47:41;22.60;52.30
41644;DHT22;44236;48.098;11.582;2023-05-07T07:50:08;22.70;52.20
41644;DHT22;44236;48.098;11.582;2023-05-07T07:52:34;22.70;51.70
41644;DHT22;44236;48.098;11.582;2023-05-07T07:54:59;22.80;51.80
41644;DHT22;44236;48.098;11.582;2023-05-07T07:57:25;22.90;51.80
41644;DHT22;44236;48.098;11.582;2023-05-07T07:59:51;22.90;51.50
41644;DHT22;44236;48.098;11.582;2023-05-07T08:02:17;22.90;51.20
41644;DHT22;44236;48.098;11.582;2023-05-07T08:04:43;22.90;51.80
41644;DHT22;44236;48.098;11.582;2023-05-07T08:07:09;22.90;51.10
41644;DHT22;44236;48.098;11.582;2023-05-07T08:09:35;22.80;51.50
41644;DHT22;44236;48.098;11.582;2023-05-07T08:12:01;22.80;51.50
41644;DHT22;44236;48.098;11.582;2023-05-07T08:14:26;22.80;51.20
41644;DHT22;44236;48.098;11.582;2023-05-07T08:16:54;22.80;50.60
41644;DHT22;44236;48.098;11.582;2023-05-07T08:19:19;22.80;50.50
41644;DHT22;44236;48.098;11.582;2023-05-07T08:21:45;22.80;50.70
41644;DHT22;44236;48.098;11.582;2023-05-07T08:24:16;22.70;50.50
41644;DHT22;44236;48.098;11.582;2023-05-07T08:26:42;22.60;50.70
41644;DHT22;44236;48.098;11.582;2023-05-07T08:29:07;22.60;51.40
41644;DHT22;44236;48.098;11.582;2023-05-07T08:31:33;22.60;51.80
41644;DHT22;44236;48.098;11.582;2023-05-07T08:33:59;22.60;52.20
41644;DHT22;44236;48.098;11.582;2023-05-07T08:36:25;22.60;51.80
41644;DHT22;44236;48.098;11.582;2023-05-07T08:38:51;22.60;51.50
41644;DHT22;44236;48.098;11.582;2023-05-07T08:41:17;22.70;51.40
41644;DHT22;44236;48.098;11.582;2023-05-07T08:43:47;22.70;51.50
41644;DHT22;44236;48.098;11.582;2023-05-07T08:46:17;22.70;51.80
41644;DHT22;44236;48.098;11.582;2023-05-07T08:48:44;22.70;51.90
41644;DHT22;44236;48.098;11.582;2023-05-07T08:51:13;22.80;52.10
41644;DHT22;44236;48.098;11.582;2023-05-07T08:53:41;22.70;50.70
41644;DHT22;44236;48.098;11.582;2023-05-07T08:56:08;22.80;50.70
41644;DHT22;44236;48.098;11.582;2023-05-07T08:58:34;22.60;50.70
41644;DHT22;44236;48.098;11.582;2023-05-07T09:01:03;22.60;51.30
41644;DHT22;44236;48.098;11.582;2023-05-07T09:03:32;22.60;51.40
41644;DHT22;44236;48.098;11.582;2023-05-07T09:05:58;22.60;50.60
41644;DHT22;44236;48.098;11.582;2023-05-07T09:08:27;22.60;51.00
41644;DHT22;44236;48.098;11.582;2023-05-07T09:10:52;22.60;51.00
41644;DHT22;44236;48.098;11.582;2023-05-07T09:13:19;22.60;51.00
41644;DHT22;44236;48.098;11.582;2023-05-07T09:15:44;22.60;51.40
41644;DHT22;44236;48.098;11.582;2023-05-07T09:18:10;22.50;51.30
41644;DHT22;44236;48.098;11.582;2023-05-07T09:20:39;22.50;50.10
41644;DHT22;44236;48.098;11.582;2023-05-07T09:23:06;22.40;49.90
41644;DHT22;44236;48.098;11.582;2023-05-07T09:25:33;22.40;49.80
41644;DHT22;44236;48.098;11.582;2023-05-07T09:28:01;22.40;50.00
41644;DHT22;44236;48.098;11.582;2023-05-07T09:30:33;22.40;50.30
41644;DHT22;44236;48.098;11.582;2023-05-07T09:33:01;22.50;49.80
41644;DHT22;44236;48.098;11.582;2023-05-07T09:35:27;22.50;50.00
41644;DHT22;44236;48.098;11.582;2023-05-07T09:37:53;22.50;49.30
41644;DHT22;44236;48.098;11.582;2023-05-07T09:40:27;22.50;50.90
41644;DHT22;44236;48.098;11.582;2023-05-07T09:42:53;22.50;49.90
41644;DHT22;44236;48.098;11.582;2023-05-07T09:45:27;22.50;48.40
41644;DHT22;44236;48.098;11.582;2023-05-07T09:47:57;22.50;49.40
41644;DHT22;44236;48.098;11.582;2023-05-07T09:50:35;22.60;48.60
41644;DHT22;44236;48.098;11.582;2023-05-07T09:53:03;22.50;49.40
41644;DHT22;44236;48.098;11.582;2023-05-07T09:55:29;22.60;48.50
41644;DHT22;44236;48.098;11.582;2023-05-07T09:57:57;22.50;50.00
41644;DHT22;44236;48.098;11.582;2023-05-07T10:00:25;22.60;49.60
41644;DHT22;44236;48.098;11.582;2023-05-07T10:02:56;22.50;48.80
41644;DHT22;44236;48.098;11.582;2023-05-07T10:05:22;22.50;50.50
41644;DHT22;44236;48.098;11.582;2023-05-07T10:07:49;22.50;49.50
41644;DHT22;44236;48.098;11.582;2023-05-07T10:10:16;22.50;50.40
41644;DHT22;44236;48.098;11.582;2023-05-07T10:12:42;22.50;50.10
41644;DHT22;44236;48.098;11.582;2023-05-07T10:15:09;22.50;48.40
41644;DHT22;44236;48.098;11.582;2023-05-07T10:17:39;22.50;50.40
41644;DHT22;44236;48.098;11.582;2023-05-07T10:20:07;22.60;48.30
41644;DHT22;44236;48.098;11.582;2023-05-07T10:22:46;22.50;48.10
41644;DHT22;44236;48.098;11.582;2023-05-07T10:25:24;22.50;49.30
41644;DHT22;44236;48.098;11.582;2023-05-07T10:27:51;22.50;49.90
41644;DHT22;44236;48.098;11.582;2023-05-07T10:32:49;22.50;50.50
41644;DHT22;44236;48.098;11.582;2023-05-07T10:35:24;22.50;48.60
41644;DHT22;44236;48.098;11.582;2023-05-07T10:37:51;22.60;49.90
41644;DHT22;44236;48.098;11.582;2023-05-07T10:40:17;22.50;49.00
41644;DHT22;44236;48.098;11.582;2023-05-07T10:45:21;22.50;50.60
41644;DHT22;44236;48.098;11.582;2023-05-07T10:48:06;22.50;51.10
41644;DHT22;44236;48.098;11.582;2023-05-07T10:50:32;22.50;51.00
41644;DHT22;44236;48.098;11.582;2023-05-07T10:55:43;22.50;51.00
41644;DHT22;44236;48.098;11.582;2023-05-07T10:58:29;22.60;51.20
41644;DHT22;44236;48.098;11.582;2023-05-07T11:01:00;22.60;51.20
41644;DHT22;44236;48.098;11.582;2023-05-07T11:03:27;22.60;51.10
41644;DHT22;44236;48.098;11.582;2023-05-07T11:06:14;22.60;51.50
41644;DHT22;44236;48.098;11.582;2023-05-07T11:11:18;22.60;51.90
41644;DHT22;44236;48.098;11.582;2023-05-07T11:13:46;22.60;51.50
41644;DHT22;44236;48.098;11.582;2023-05-07T11:16:25;22.60;51.30
41644;DHT22;44236;48.098;11.582;2023-05-07T11:18:56;22.70;52.00
41644;DHT22;44236;48.098;11.582;2023-05-07T11:21:54;22.60;51.70
41644;DHT22;44236;48.098;11.582;2023-05-07T11:24:19;22.60;51.90
41644;DHT22;44236;48.098;11.582;2023-05-07T11:26:50;22.70;51.90
41644;DHT22;44236;48.098;11.582;2023-05-07T11:29:20;22.60;51.90
41644;DHT22;44236;48.098;11.582;2023-05-07T11:31:54;22.70;52.20
41644;DHT22;44236;48.098;11.582;2023-05-07T11:34:21;22.60;52.40
41644;DHT22;44236;48.098;11.582;2023-05-07T11:36:48;22.60;52.30
41644;DHT22;44236;48.098;11.582;2023-05-07T11:39:29;22.60;52.20
41644;DHT22;44236;48.098;11.582;2023-05-07T11:41:55;22.60;52.10
41644;DHT22;44236;48.098;11.582;2023-05-07T11:44:21;22.70;52.10
41644;DHT22;44236;48.098;11.582;2023-05-07T11:46:47;22.60;52.10
41644;DHT22;44236;48.098;11.582;2023-05-07T11:49:13;22.70;52.10
41644;DHT22;44236;48.098;11.582;2023-05-07T11:51:39;22.60;52.10
41644;DHT22;44236;48.098;11.582;2023-05-07T11:54:06;22.60;52.20
41644;DHT22;44236;48.098;11.582;2023-05-07T11:56:37;22.60;51.90
41644;DHT22;44236;48.098;11.582;2023-05-07T11:59:02;22.70;52.00
41644;DHT22;44236;48.098;11.582;2023-05-07T12:01:28;22.70;52.00
41644;DHT22;44236;48.098;11.582;2023-05-07T12:03:54;22.60;51.60
41644;DHT22;44236;48.098;11.582;2023-05-07T12:06:19;22.70;52.30
41644;DHT22;44236;48.098;11.582;2023-05-07T12:08:46;22.70;52.10
41644;DHT22;44236;48.098;11.582;2023-05-07T12:11:25;22.60;52.30
41644;DHT22;44236;48.098;11.582;2023-05-07T12:13:51;22.70;52.10
41644;DHT22;44236;48.098;11.582;2023-05-07T12:16:17;22.60;50.30
41644;DHT22;44236;48.098;11.582;2023-05-07T12:18:44;22.30;50.00
41644;DHT22;44236;48.098;11.582;2023-05-07T12:21:10;22.10;50.60
41644;DHT22;44236;48.098;11.582;2023-05-07T12:23:36;21.90;50.60
41644;DHT22;44236;48.098;11.582;2023-05-07T12:26:03;21.90;50.40
41644;DHT22;44236;48.098;11.582;2023-05-07T12:28:28;21.80;50.60
41644;DHT22;44236;48.098;11.582;2023-05-07T12:30:56;21.80;49.90
41644;DHT22;44236;48.098;11.582;2023-05-07T12:33:26;21.70;50.50
41644;DHT22;44236;48.098;11.582;2023-05-07T12:35:54;21.70;50.40
41644;DHT22;44236;48.098;11.582;2023-05-07T12:38:20;21.80;50.80
41644;DHT22;44236;48.098;11.582;2023-05-07T12:40:53;21.90;50.40
41644;DHT22;44236;48.098;11.582;2023-05-07T12:43:20;22.00;49.80
41644;DHT22;44236;48.098;11.582;2023-05-07T12:45:48;22.10;49.60
41644;DHT22;44236;48.098;11.582;2023-05-07T12:48:14;22.10;49.80
41644;DHT22;44236;48.098;11.582;2023-05-07T12:50:40;22.20;50.30
41644;DHT22;44236;48.098;11.582;2023-05-07T12:53:07;22.20;49.40
41644;DHT22;44236;48.098;11.582;2023-05-07T12:55:58;22.30;49.50
41644;DHT22;44236;48.098;11.582;2023-05-07T12:58:28;22.20;49.00
41644;DHT22;44236;48.098;11.582;2023-05-07T13:00:55;22.20;48.70
41644;DHT22;44236;48.098;11.582;2023-05-07T13:03:33;22.20;48.50
41644;DHT22;44236;48.098;11.582;2023-05-07T13:06:01;22.20;48.80
41644;DHT22;44236;48.098;11.582;2023-05-07T13:08:31;22.20;49.40
41644;DHT22;44236;48.098;11.582;2023-05-07T13:10:58;22.30;48.60
41644;DHT22;44236;48.098;11.582;2023-05-07T13:13:25;22.20;47.70
41644;DHT22;44236;48.098;11.582;2023-05-07T13:15:51;22.20;47.90
41644;DHT22;44236;48.098;11.582;2023-05-07T13:18:17;22.20;47.90
41644;DHT22;44236;48.098;11.582;2023-05-07T13:20:43;22.20;48.60
41644;DHT22;44236;48.098;11.582;2023-05-07T13:23:08;22.30;48.50
41644;DHT22;44236;48.098;11.582;2023-05-07T13:25:34;22.30;47.40
41644;DHT22;44236;48.098;11.582;2023-05-07T13:28:00;22.30;47.30
41644;DHT22;44236;48.098;11.582;2023-05-07T13:30:26;22.30;47.10
41644;DHT22;44236;48.098;11.582;2023-05-07T13:32:53;22.30;47.60
41644;DHT22;44236;48.098;11.582;2023-05-07T13:35:20;22.40;46.70
41644;DHT22;44236;48.098;11.582;2023-05-07T13:37:46;22.30;47.10
41644;DHT22;44236;48.098;11.582;2023-05-07T13:40:13;22.40;46.40
41644;DHT22;44236;48.098;11.582;2023-05-07T13:42:39;22.40;46.70
41644;DHT22;44236;48.098;11.582;2023-05-07T13:45:05;22.40;47.00
41644;DHT22;44236;48.098;11.582;2023-05-07T13:47:31;22.40;46.20
41644;DHT22;44236;48.098;11.582;2023-05-07T13:49:56;22.30;46.50
41644;DHT22;44236;48.098;11.582;2023-05-07T13:52:22;22.30;45.70
41644;DHT22;44236;48.098;11.582;2023-05-07T13:54:47;22.30;46.10
41644;DHT22;44236;48.098;11.582;2023-05-07T13:57:13;22.30;45.50
41644;DHT22;44236;48.098;11.582;2023-05-07T13:59:39;22.30;45.80
41644;DHT22;44236;48.098;11.582;2023-05-07T14:02:05;22.30;46.00
41644;DHT22;44236;48.098;11.582;2023-05-07T14:04:31;22.30;45.70
41644;DHT22;44236;48.098;11.582;2023-05-07T14:06:56;22.30;45.70
41644;DHT22;44236;48.098;11.582;2023-05-07T14:09:22;22.30;46.30
41644;DHT22;44236;48.098;11.582;2023-05-07T14:11:47;22.30;45.80
41644;DHT22;44236;48.098;11.582;2023-05-07T14:14:17;22.30;46.00
41644;DHT22;44236;48.098;11.582;2023-05-07T14:16:42;22.30;45.70
41644;DHT22;44236;48.098;11.582;2023-05-07T14:19:08;22.30;45.60
41644;DHT22;44236;48.098;11.582;2023-05-07T14:21:33;22.30;45.80
41644;DHT22;44236;48.098;11.582;2023-05-07T14:23:59;22.20;45.90
41644;DHT22;44236;48.098;11.582;2023-05-07T14:26:25;22.20;45.70
41644;DHT22;44236;48.098;11.582;2023-05-07T14:28:52;22.20;46.40
41644;DHT22;44236;48.098;11.582;2023-05-07T14:31:20;22.30;45.90
41644;DHT22;44236;48.098;11.582;2023-05-07T14:33:48;22.20;46.80
41644;DHT22;44236;48.098;11.582;2023-05-07T14:36:15;22.20;46.30
41644;DHT22;44236;48.098;11.582;2023-05-07T14:38:41;22.20;46.30
41644;DHT22;44236;48.098;11.582;2023-05-07T14:41:06;22.20;46.70
41644;DHT22;44236;48.098;11.582;2023-05-07T14:43:32;22.20;46.50
41644;DHT22;44236;48.098;11.582;2023-05-07T14:45:57;22.20;46.60
41644;DHT22;44236;48.098;11.582;2023-05-07T14:48:23;22.20;47.10
41644;DHT22;44236;48.098;11.582;2023-05-07T14:50:48;22.20;47.40
41644;DHT22;44236;48.098;11.582;2023-05-07T14:53:14;22.20;47.40
41644;DHT22;44236;48.098;11.582;2023-05-07T14:55:40;22.20;47.30
41644;DHT22;44236;48.098;11.582;2023-05-07T14:58:06;22.20;47.60
41644;DHT22;44236;48.098;11.582;2023-05-07T15:00:31;22.20;46.50
41644;DHT22;44236;48.098;11.582;2023-05-07T15:03:07;22.20;46.70
41644;DHT22;44236;48.098;11.582;2023-05-07T15:05:33;22.20;47.30
41644;DHT22;44236;48.098;11.582;2023-05-07T15:07:59;22.20;47.40
41644;DHT22;44236;48.098;11.582;2023-05-07T15:10:25;22.20;47.70
41644;DHT22;44236;48.098;11.582;2023-05-07T15:12:51;22.10;48.00
41644;DHT22;44236;48.098;11.582;2023-05-07T15:15:16;22.10;47.30
41644;DHT22;44236;48.098;11.582;2023-05-07T15:17:42;22.10;47.50
41644;DHT22;44236;48.098;11.582;2023-05-07T15:20:08;22.10;47.30
41644;DHT22;44236;48.098;11.582;2023-05-07T15:22:34;22.10;47.50
41644;DHT22;44236;48.098;11.582;2023-05-07T15:25:01;22.10;47.60
41644;DHT22;44236;48.098;11.582;2023-05-07T15:27:27;22.00;47.50